createdAt,value
2018-09-17T00:01:35.562Z,71.72
2018-09-17T00:04:59.993Z,71.97
2018-09-17T00:08:24.420Z,72.25
2018-09-17T00:11:48.872Z,72.37
2018-09-17T00:15:13.337Z,72.72
2018-09-17T00:18:37.774Z,72.55
2018-09-17T00:22:02.219Z,72.47
2018-09-17T00:25:26.820Z,72.37
2018-09-17T00:28:51.326Z,73.15
2018-09-17T00:32:15.741Z,72.87
2018-09-17T00:35:40.209Z,72.72
2018-09-17T00:39:06.657Z,72.28
2018-09-17T00:42:31.104Z,72.72
2018-09-17T00:45:55.598Z,72.93
2018-09-17T00:49:20.003Z,73.26
2018-09-17T00:52:44.509Z,73.20
2018-09-17T00:56:08.985Z,74.22
2018-09-17T00:59:33.420Z,73.89
2018-09-17T01:02:57.858Z,73.52
2018-09-17T01:06:22.356Z,74.19
2018-09-17T01:09:46.800Z,74.31
2018-09-17T01:13:11.216Z,74.50
2018-09-17T01:16:35.634Z,74.80
2018-09-17T01:20:00.033Z,74.82
2018-09-17T01:23:24.459Z,74.52
2018-09-17T01:26:48.869Z,74.97
2018-09-17T01:30:13.319Z,74.21
2018-09-17T01:33:37.772Z,74.89
2018-09-17T01:37:02.213Z,74.86
2018-09-17T01:40:26.641Z,73.86
2018-09-17T01:43:51.081Z,74.91
2018-09-17T01:47:15.512Z,74.30
2018-09-17T01:50:39.912Z,73.12
2018-09-17T01:54:04.477Z,75.32
2018-09-17T01:57:29.615Z,72.82
2018-09-17T02:00:54.044Z,72.88
2018-09-17T02:04:18.492Z,74.65
2018-09-17T02:07:42.960Z,73.25
2018-09-17T02:11:07.419Z,72.83
2018-09-17T02:14:31.859Z,72.95
2018-09-17T02:17:56.284Z,73.12
2018-09-17T02:21:20.738Z,74.14
2018-09-17T02:24:45.211Z,73.52
2018-09-17T02:28:09.617Z,72.62
2018-09-17T02:31:34.054Z,72.44
2018-09-17T02:34:58.507Z,72.86
2018-09-17T02:38:22.879Z,72.44
2018-09-17T02:41:47.315Z,72.05
2018-09-17T02:45:11.768Z,72.02
2018-09-17T02:48:36.319Z,72.44
2018-09-17T02:52:00.753Z,72.75
2018-09-17T02:55:25.237Z,73.18
2018-09-17T02:58:49.736Z,73.15
2018-09-17T03:02:14.126Z,74.13
2018-09-17T03:05:38.618Z,73.59
2018-09-17T03:09:03.153Z,73.72
2018-09-17T03:12:27.604Z,73.61
2018-09-17T03:15:55.033Z,73.52
2018-09-17T03:19:19.479Z,74.37
2018-09-17T03:22:43.928Z,74.33
2018-09-17T03:26:08.403Z,74.19
2018-09-17T03:29:32.841Z,73.08
2018-09-17T03:32:57.395Z,73.93
2018-09-17T03:36:21.824Z,74.10
2018-09-17T03:39:46.236Z,74.16
2018-09-17T03:43:10.657Z,74.61
2018-09-17T03:46:35.152Z,75.18
2018-09-17T03:49:59.521Z,75.29
2018-09-17T03:53:23.939Z,74.54
2018-09-17T03:56:48.428Z,74.73
2018-09-17T04:00:12.832Z,74.59
2018-09-17T04:03:37.278Z,74.37
2018-09-17T04:07:01.700Z,73.83
2018-09-17T04:10:32.259Z,74.03
2018-09-17T04:13:56.790Z,73.95
2018-09-17T04:17:21.226Z,74.86
2018-09-17T04:20:45.671Z,74.57
2018-09-17T04:24:10.088Z,74.82
2018-09-17T04:27:34.544Z,75.27
2018-09-17T04:32:36.561Z,74.74
2018-09-17T04:36:01.005Z,74.67
2018-09-17T04:39:26.674Z,74.34
2018-09-17T04:42:51.074Z,75.25
2018-09-17T04:46:15.568Z,74.13
2018-09-17T04:49:40.068Z,72.89
2018-09-17T04:53:04.660Z,72.85
2018-09-17T04:56:29.203Z,73.43
2018-09-17T04:59:54.085Z,73.14
2018-09-17T05:03:18.563Z,72.38
2018-09-17T05:06:43.227Z,72.86
2018-09-17T05:10:07.983Z,73.46
2018-09-17T05:13:32.498Z,73.47
2018-09-17T05:16:56.951Z,72.33
2018-09-17T05:20:21.400Z,72.60
2018-09-17T05:23:45.829Z,73.88
2018-09-17T05:27:10.257Z,73.87
2018-09-17T05:30:34.681Z,73.93
2018-09-17T05:33:59.139Z,74.48
2018-09-17T05:37:23.579Z,74.49
2018-09-17T05:40:48.016Z,74.37
2018-09-17T05:44:12.530Z,74.55
2018-09-17T05:47:36.997Z,74.32
2018-09-17T05:51:01.610Z,73.91
2018-09-17T05:54:26.087Z,74.02
2018-09-17T05:57:50.594Z,74.24
2018-09-17T06:01:14.980Z,73.18
2018-09-17T06:04:39.419Z,71.86
2018-09-17T06:08:05.165Z,72.01
2018-09-17T06:11:29.726Z,72.19
2018-09-17T06:14:54.203Z,72.43
2018-09-17T06:18:18.730Z,72.13
2018-09-17T06:21:43.133Z,71.74
2018-09-17T06:25:07.606Z,70.52
2018-09-17T06:28:32.692Z,69.37
2018-09-17T06:31:57.205Z,68.76
2018-09-17T06:35:21.622Z,69.81
2018-09-17T06:38:46.112Z,69.28
2018-09-17T06:42:10.541Z,67.36
2018-09-17T06:45:35.015Z,66.93
2018-09-17T06:48:59.461Z,68.20
2018-09-17T06:52:23.903Z,66.75
2018-09-17T06:55:48.310Z,64.86
2018-09-17T06:59:12.710Z,66.04
2018-09-17T07:02:37.124Z,66.51
2018-09-17T07:06:01.542Z,65.00
2018-09-17T07:09:25.989Z,63.97
2018-09-17T07:12:50.406Z,63.04
2018-09-17T07:16:14.828Z,62.62
2018-09-17T07:19:39.220Z,63.16
2018-09-17T07:23:03.677Z,62.30
2018-09-17T07:26:28.128Z,61.50
2018-09-17T07:29:52.633Z,61.38
2018-09-17T07:33:17.090Z,61.23
2018-09-17T07:36:41.524Z,61.65
2018-09-17T07:40:05.941Z,60.11
2018-09-17T07:43:30.396Z,59.43
2018-09-17T07:46:54.844Z,59.10
2018-09-17T07:50:19.283Z,57.77
2018-09-17T07:53:43.767Z,57.73
2018-09-17T07:57:08.229Z,57.00
2018-09-17T08:00:32.678Z,56.51
2018-09-17T08:03:57.126Z,57.17
2018-09-17T08:07:21.599Z,55.61
2018-09-17T08:10:46.006Z,55.33
2018-09-17T08:14:10.473Z,54.96
2018-09-17T08:17:34.925Z,54.77
2018-09-17T08:20:59.378Z,53.91
2018-09-17T08:24:23.830Z,53.81
2018-09-17T08:27:48.277Z,53.76
2018-09-17T08:31:12.700Z,52.83
2018-09-17T08:34:37.139Z,52.84
2018-09-17T08:38:01.628Z,51.33
2018-09-17T08:41:26.161Z,52.12
2018-09-17T08:44:50.598Z,50.51
2018-09-17T08:48:15.034Z,50.53
2018-09-17T08:51:39.501Z,50.79
2018-09-17T08:55:09.060Z,50.14
2018-09-17T08:58:39.848Z,49.33
2018-09-17T09:02:09.314Z,50.17
2018-09-17T09:05:34.819Z,50.35
2018-09-17T09:08:59.229Z,48.52
2018-09-17T09:12:30.710Z,47.62
2018-09-17T09:15:55.166Z,47.44
2018-09-17T09:19:19.561Z,46.53
2018-09-17T09:22:43.960Z,46.44
2018-09-17T09:26:08.401Z,46.03
2018-09-17T09:29:32.877Z,45.39
2018-09-17T09:32:57.381Z,44.19
2018-09-17T09:36:21.799Z,44.27
2018-09-17T09:39:46.234Z,43.59
2018-09-17T09:43:10.648Z,43.33
2018-09-17T09:46:35.071Z,41.53
2018-09-17T09:49:59.444Z,40.63
2018-09-17T09:53:23.844Z,39.08
2018-09-17T09:56:48.279Z,35.55
2018-09-17T10:00:17.878Z,33.34
2018-09-17T10:03:44.146Z,30.51
2018-09-17T10:07:08.563Z,29.06
2018-09-17T10:10:38.008Z,27.06
2018-09-17T10:14:07.449Z,24.75
2018-09-17T10:17:37.031Z,25.32
2018-09-17T10:21:01.428Z,25.14
2018-09-17T10:24:25.854Z,23.58
2018-09-17T10:27:50.303Z,21.29
2018-09-17T10:31:14.873Z,21.70
2018-09-17T10:34:39.300Z,22.65
2018-09-17T10:38:03.708Z,20.57
2018-09-17T10:41:28.117Z,21.19
2018-09-17T10:44:52.574Z,21.70
2018-09-17T10:48:17.013Z,20.88
2018-09-17T10:51:41.468Z,21.38
2018-09-17T10:55:05.899Z,19.76
2018-09-17T10:58:30.358Z,19.67
2018-09-17T11:01:54.764Z,20.99
2018-09-17T11:05:19.210Z,20.80
2018-09-17T11:08:46.620Z,21.08
2018-09-17T11:12:11.076Z,21.66
2018-09-17T11:15:40.641Z,21.42
2018-09-17T11:19:05.207Z,22.32
2018-09-17T11:22:29.638Z,23.43
2018-09-17T11:25:54.098Z,22.72
2018-09-17T11:29:18.619Z,22.04
2018-09-17T11:32:43.044Z,21.70
2018-09-17T11:36:07.584Z,21.32
2018-09-17T11:39:32.106Z,19.76
2018-09-17T11:42:56.555Z,21.30
2018-09-17T11:46:20.970Z,19.95
2018-09-17T11:49:45.381Z,22.22
2018-09-17T11:53:09.917Z,21.68
2018-09-17T11:56:34.463Z,22.38
2018-09-17T11:59:58.884Z,19.44
2018-09-17T12:03:28.501Z,18.36
2018-09-17T12:06:58.128Z,18.75
2018-09-17T12:10:22.566Z,19.59
2018-09-17T12:13:47.043Z,18.74
2018-09-17T12:17:11.466Z,17.64
2018-09-17T12:20:35.951Z,17.27
2018-09-17T12:24:00.421Z,18.56
2018-09-17T12:27:25.026Z,17.33
2018-09-17T12:30:55.773Z,16.26
2018-09-17T12:34:20.225Z,15.91
2018-09-17T12:37:44.632Z,14.62
2018-09-17T12:41:09.072Z,14.06
2018-09-17T12:44:33.558Z,15.62
2018-09-17T12:47:57.982Z,15.99
2018-09-17T12:51:22.401Z,14.39
2018-09-17T12:54:46.897Z,13.83
2018-09-17T12:58:11.338Z,13.04
2018-09-17T13:01:35.767Z,12.59
2018-09-17T13:05:00.261Z,13.19
2018-09-17T13:08:24.683Z,15.19
2018-09-17T13:11:49.199Z,14.20
2018-09-17T13:15:13.578Z,14.44
2018-09-17T13:18:38.144Z,15.77
2018-09-17T13:22:02.688Z,15.34
2018-09-17T13:25:29.797Z,17.60
2018-09-17T13:28:54.407Z,19.44
2018-09-17T13:32:18.820Z,19.44
2018-09-17T13:35:43.285Z,18.43
2018-09-17T13:39:08.304Z,18.54
2018-09-17T13:42:32.862Z,18.46
2018-09-17T13:45:59.366Z,17.74
2018-09-17T13:49:23.879Z,17.84
2018-09-17T13:52:48.461Z,17.32
2018-09-17T13:56:12.982Z,15.94
2018-09-17T13:59:37.500Z,17.95
2018-09-17T14:03:02.275Z,15.55
2018-09-17T14:06:26.737Z,15.56
2018-09-17T14:09:51.786Z,14.82
2018-09-17T14:13:16.273Z,14.10
2018-09-17T14:16:41.553Z,13.56
2018-09-17T14:20:06.074Z,12.93
2018-09-17T14:23:30.576Z,13.18
2018-09-17T14:26:55.871Z,13.06
2018-09-17T14:30:21.132Z,13.77
2018-09-17T14:33:45.563Z,13.68
2018-09-17T14:37:10.106Z,12.76
2018-09-17T14:40:34.571Z,13.54
2018-09-17T14:43:59.045Z,13.52
2018-09-17T14:47:23.471Z,12.90
2018-09-17T14:50:47.934Z,11.69
2018-09-17T14:54:12.406Z,12.24
2018-09-17T14:57:36.821Z,11.75
2018-09-17T15:01:01.326Z,12.69
2018-09-17T15:04:25.812Z,12.12
2018-09-17T15:07:50.384Z,12.79
2018-09-17T15:11:14.875Z,10.64
2018-09-17T15:14:39.336Z,11.19
2018-09-17T15:18:03.832Z,11.09
2018-09-17T15:21:28.348Z,10.02
2018-09-17T15:24:53.151Z,10.56
2018-09-17T15:28:17.787Z,10.33
2018-09-17T15:31:42.144Z,10.04
2018-09-17T15:35:06.845Z,10.00
2018-09-17T15:38:32.117Z,11.05
2018-09-17T15:41:56.671Z,11.21
2018-09-17T15:45:21.752Z,9.81
2018-09-17T15:48:46.410Z,9.51
2018-09-17T15:52:11.739Z,10.08
2018-09-17T15:55:36.460Z,10.83
2018-09-17T15:59:00.919Z,11.25
2018-09-17T16:02:25.429Z,11.84
2018-09-17T16:05:49.891Z,11.64
2018-09-17T16:09:14.297Z,11.52
2018-09-17T16:12:38.783Z,11.82
2018-09-17T16:16:03.223Z,12.70
2018-09-17T16:19:27.805Z,13.23
2018-09-17T16:22:52.236Z,13.39
2018-09-17T16:26:16.639Z,14.28
2018-09-17T16:29:41.174Z,15.59
2018-09-17T16:33:05.788Z,16.03
2018-09-17T16:36:30.460Z,15.94
2018-09-17T16:39:54.895Z,16.42
2018-09-17T16:43:19.709Z,18.44
2018-09-17T16:46:44.229Z,18.71
2018-09-17T16:50:09.883Z,21.04
2018-09-17T16:53:35.007Z,22.24
2018-09-17T16:57:00.307Z,24.74
2018-09-17T17:00:24.803Z,25.06
2018-09-17T17:03:49.732Z,25.76
2018-09-17T17:07:14.270Z,27.39
2018-09-17T17:10:39.627Z,27.69
2018-09-17T17:14:06.481Z,29.57
2018-09-17T17:17:31.273Z,30.55
2018-09-17T17:20:55.966Z,29.76
2018-09-17T17:24:22.330Z,29.34
2018-09-17T17:27:46.738Z,31.32
2018-09-17T17:31:11.205Z,33.79
2018-09-17T17:34:35.665Z,35.72
2018-09-17T17:38:00.116Z,36.20
2018-09-17T17:41:24.571Z,38.61
2018-09-17T17:44:48.981Z,37.91
2018-09-17T17:48:13.427Z,37.98
2018-09-17T17:51:38.009Z,37.62
2018-09-17T17:55:02.585Z,37.65
2018-09-17T17:58:27.157Z,39.71
2018-09-17T18:01:51.645Z,39.90
2018-09-17T18:05:16.105Z,40.07
2018-09-17T18:08:40.585Z,41.29
2018-09-17T18:12:05.134Z,41.97
2018-09-17T18:15:29.544Z,42.11
2018-09-17T18:18:54.715Z,42.09
2018-09-17T18:22:19.287Z,42.97
2018-09-17T18:25:43.814Z,43.59
2018-09-17T18:29:08.383Z,43.47
2018-09-17T18:32:33.098Z,44.30
2018-09-17T18:35:57.680Z,44.15
2018-09-17T18:39:22.239Z,44.67
2018-09-17T18:42:46.682Z,44.62
2018-09-17T18:46:11.795Z,44.63
2018-09-17T18:49:36.250Z,44.54
2018-09-17T18:53:02.199Z,44.93
2018-09-17T18:56:26.855Z,45.86
2018-09-17T18:59:52.410Z,46.05
2018-09-17T19:03:17.934Z,46.28
2018-09-17T19:06:43.221Z,46.30
2018-09-17T19:10:09.218Z,46.57
2018-09-17T19:13:34.071Z,46.44
2018-09-17T19:16:59.137Z,46.75
2018-09-17T19:20:24.828Z,48.63
2018-09-17T19:23:57.651Z,48.76
2018-09-17T19:27:27.639Z,48.13
2018-09-17T19:30:53.432Z,47.63
2018-09-17T19:34:19.427Z,48.82
2018-09-17T19:37:50.036Z,47.70
2018-09-17T19:41:15.285Z,48.96
2018-09-17T19:44:45.229Z,49.72
2018-09-17T19:48:10.191Z,50.44
2018-09-17T19:51:40.940Z,50.09
2018-09-17T19:55:05.969Z,49.38
2018-09-17T19:58:37.348Z,49.86
2018-09-17T20:02:02.598Z,49.97
2018-09-17T20:05:32.044Z,50.08
2018-09-17T20:08:56.756Z,50.85
2018-09-17T20:12:21.611Z,50.15
2018-09-17T20:15:46.124Z,50.72
2018-09-17T20:19:10.717Z,50.11
2018-09-17T20:22:35.835Z,49.83
2018-09-17T20:26:00.260Z,50.45
2018-09-17T20:29:24.815Z,50.87
2018-09-17T20:32:49.646Z,50.37
2018-09-17T20:36:14.164Z,50.69
2018-09-17T20:39:38.725Z,50.92
2018-09-17T20:43:03.164Z,50.37
2018-09-17T20:46:27.589Z,49.26
2018-09-17T20:49:52.042Z,48.92
2018-09-17T20:53:16.440Z,47.93
2018-09-17T20:56:40.902Z,45.41
2018-09-17T21:00:05.369Z,47.24
2018-09-17T21:03:29.837Z,45.75
2018-09-17T21:06:54.345Z,43.89
2018-09-17T21:10:18.684Z,42.90
2018-09-17T21:13:43.138Z,42.92
2018-09-17T21:17:07.594Z,44.26
2018-09-17T21:20:32.156Z,43.89
2018-09-17T21:23:56.566Z,44.94
2018-09-17T21:27:26.979Z,40.71
2018-09-17T21:30:51.421Z,40.79
2018-09-17T21:34:15.792Z,40.58
2018-09-17T21:37:40.343Z,39.73
2018-09-17T21:41:04.791Z,38.95
2018-09-17T21:44:29.254Z,38.92
2018-09-17T21:48:03.587Z,38.95
2018-09-17T21:51:28.024Z,41.37
2018-09-17T21:54:52.438Z,41.56
2018-09-17T21:58:17.051Z,43.89
2018-09-17T22:01:41.619Z,42.73
2018-09-17T22:05:07.171Z,45.40
2018-09-17T22:08:31.991Z,44.39
2018-09-17T22:11:56.470Z,43.56
2018-09-17T22:15:20.881Z,41.83
2018-09-17T22:18:45.267Z,43.82
2018-09-17T22:22:09.702Z,44.65
2018-09-17T22:25:34.219Z,44.17
2018-09-17T22:28:58.709Z,43.29
2018-09-17T22:32:23.121Z,43.97
2018-09-17T22:36:00.703Z,45.78
2018-09-17T22:39:25.089Z,45.85
2018-09-17T22:42:49.540Z,46.32
2018-09-17T22:46:14.004Z,46.38
2018-09-17T22:49:38.413Z,46.94
2018-09-17T22:53:02.882Z,47.48
2018-09-17T22:56:27.344Z,46.83
2018-09-17T22:59:51.752Z,46.45
2018-09-17T23:03:16.126Z,47.40
2018-09-17T23:06:40.556Z,46.55
2018-09-17T23:10:06.277Z,47.62
2018-09-17T23:13:30.768Z,45.02
2018-09-17T23:16:55.229Z,44.99
2018-09-17T23:20:19.669Z,43.76
2018-09-17T23:23:44.140Z,43.47
2018-09-17T23:27:08.559Z,43.63
2018-09-17T23:30:32.957Z,43.67
2018-09-17T23:33:57.390Z,45.10
2018-09-17T23:37:21.768Z,44.64
2018-09-17T23:40:46.243Z,45.08
2018-09-17T23:44:10.755Z,44.66
2018-09-17T23:47:35.221Z,44.90
2018-09-17T23:50:59.652Z,43.97
2018-09-17T23:54:24.124Z,44.32
2018-09-17T23:57:48.558Z,45.37
